Time;durP1;ratioP1;P1;durP2;ratioP2;P2;SDS_P1;SDS_P2;PMS_P1;PMS_P2;Temp;Humidity;BMP_temperature;BMP_pressure;BME280_temperature;BME280_humidity;BME280_pressure;Samples;Min_cycle;Max_cycle;Signal;HPM_P1;HPM_P2
2023/10/09 00:01:25;;;;;;;;;;;;;;;22.18;49.74;101991.19;5020170;28;20021;-85
2023/10/09 00:03:53;;;;;;;;;;;;;;;22.27;49.65;101988.81;5035340;28;20340;-85
2023/10/09 00:06:30;;;;;;;;;;;;;;;22.19;49.39;101986.78;5032786;28;19925;-85
2023/10/09 00:08:58;;;;;;;;;;;;;;;22.27;49.80;101975.50;5042613;28;19928;-85
2023/10/09 00:11:29;;;;;;;;;;;;;;;22.24;50.20;101994.03;5034230;28;20016;-83
2023/10/09 00:14:00;;;;;;;;;;;;;;;22.12;49.23;101993.72;5036049;28;20000;-85
2023/10/09 00:16:35;;;;;;;;;;;;;;;22.21;49.77;101993.94;5057939;28;19924;-85
2023/10/09 00:19:14;;;;;;;;;;;;;;;22.20;50.33;101999.19;5044224;28;20443;-86
2023/10/09 00:24:50;;;;;;;;;;;;;;;21.98;49.56;102008.41;5055405;28;20357;-84
2023/10/09 00:27:36;;;;;;;;;;;;;;;22.09;49.97;102007.81;5034901;28;19917;-85
2023/10/09 00:30:02;;;;;;;;;;;;;;;22.17;49.99;102019.56;5044985;28;19928;-87
2023/10/09 00:32:32;;;;;;;;;;;;;;;22.25;49.78;102026.88;5047015;28;19927;-86
2023/10/09 00:34:59;;;;;;;;;;;;;;;22.22;49.63;102032.09;5051627;28;20457;-85
2023/10/09 00:37:33;;;;;;;;;;;;;;;22.22;49.78;102037.41;5037688;28;20386;-86
2023/10/09 00:39:59;;;;;;;;;;;;;;;22.11;49.89;102045.09;5035180;28;19952;-86
2023/10/09 00:42:29;;;;;;;;;;;;;;;22.19;50.05;102026.69;5049569;28;19968;-86
2023/10/09 00:45:04;;;;;;;;;;;;;;;22.21;49.92;102047.16;5034799;28;20020;-87
2023/10/09 00:47:34;;;;;;;;;;;;;;;22.20;49.87;102048.00;5025368;28;19931;-87
2023/10/09 00:50:10;;;;;;;;;;;;;;;22.29;50.62;102055.38;5034589;28;19921;-86
2023/10/09 00:53:01;;;;;;;;;;;;;;;22.22;49.98;102048.03;5006823;28;20452;-86
2023/10/09 00:55:38;;;;;;;;;;;;;;;22.18;50.08;102047.06;5037659;28;20056;-85
2023/10/09 00:58:12;;;;;;;;;;;;;;;22.22;50.10;102046.28;5036357;28;19921;-84
2023/10/09 01:11:10;;;;;;;;;;;;;;;22.06;49.65;102026.34;5028083;28;19925;-84
2023/10/09 01:13:52;;;;;;;;;;;;;;;22.10;49.71;102025.59;5031218;28;20450;-84
2023/10/09 01:16:18;;;;;;;;;;;;;;;22.11;49.93;102035.34;5028646;28;19921;-87
2023/10/09 01:18:44;;;;;;;;;;;;;;;22.13;49.68;102043.38;5030265;28;20412;-84
2023/10/09 01:21:14;;;;;;;;;;;;;;;22.13;49.59;102043.38;5050315;28;19921;-84
2023/10/09 01:23:52;;;;;;;;;;;;;;;22.11;49.85;102058.41;5033251;28;19921;-85
2023/10/09 01:26:18;;;;;;;;;;;;;;;22.04;49.80;102062.66;5019252;28;19921;-85
2023/10/09 01:28:57;;;;;;;;;;;;;;;22.09;49.50;102058.34;5036160;28;19924;-85
2023/10/09 01:31:26;;;;;;;;;;;;;;;22.15;49.62;102074.50;5034605;28;19924;-86
2023/10/09 01:33:59;;;;;;;;;;;;;;;22.09;49.59;102057.47;5015121;28;19917;-87
2023/10/09 01:36:56;;;;;;;;;;;;;;;22.15;49.86;102063.84;5027205;28;19936;-85
2023/10/09 01:39:27;;;;;;;;;;;;;;;22.12;49.69;102060.22;5050279;28;20290;-85
2023/10/09 01:44:58;;;;;;;;;;;;;;;22.13;49.12;102078.88;5041386;28;20298;-86
2023/10/09 01:53:47;;;;;;;;;;;;;;;22.08;49.19;102116.88;5046469;28;19936;-86
2023/10/09 01:56:19;;;;;;;;;;;;;;;22.09;49.41;102122.22;5025938;28;19921;-86
2023/10/09 01:58:50;;;;;;;;;;;;;;;22.06;49.42;102107.94;5033390;28;19924;-87
2023/10/09 02:02:14;;;;;;;;;;;;;;;22.12;49.29;102111.66;5049748;28;20093;-86
2023/10/09 02:05:24;;;;;;;;;;;;;;;22.07;49.46;102113.28;5033132;28;19913;-86
2023/10/09 02:07:58;;;;;;;;;;;;;;;22.02;49.28;102122.00;5038873;28;19924;-86
2023/10/09 02:13:17;;;;;;;;;;;;;;;22.07;49.15;102125.69;5034476;28;19913;-86
2023/10/09 02:18:26;;;;;;;;;;;;;;;21.93;49.36;102139.50;5040867;28;19987;-86
2023/10/09 02:27:46;;;;;;;;;;;;;;;22.03;49.02;102134.44;4993694;28;19936;-85
2023/10/09 02:30:24;;;;;;;;;;;;;;;21.95;49.37;102144.88;5046023;28;19982;-86
2023/10/09 02:33:29;;;;;;;;;;;;;;;;;;;;;
2023/10/09 02:35:58;;;;;;;;;;;;;;;21.83;49.40;102156.03;5044335;28;19923;-85
2023/10/09 02:38:24;;;;;;;;;;;;;;;21.83;49.64;102153.38;5055088;28;19913;-85
2023/10/09 02:41:34;;;;;;;;;;;;;;;21.88;49.30;102149.09;5031091;28;20361;-86
2023/10/09 02:43:44;;;;;;;;;;;;;;;21.95;49.03;102151.09;5046456;28;19943;-86
2023/10/09 02:46:57;;;;;;;;;;;;;;;21.93;49.07;102151.91;5055991;28;19917;-87
2023/10/09 02:48:59;;;;;;;;;;;;;;;21.83;48.68;102152.47;5036406;28;19944;-85
2023/10/09 02:53:52;;;;;;;;;;;;;;;21.91;49.00;102161.59;5052892;28;20317;-86
2023/10/09 02:56:23;;;;;;;;;;;;;;;21.91;48.69;102161.59;5038663;28;19992;-86
2023/10/09 02:58:50;;;;;;;;;;;;;;;21.96;48.31;102167.94;5037018;28;19912;-87
2023/10/09 03:01:16;;;;;;;;;;;;;;;21.87;49.08;102175.66;5031276;28;19921;-85
2023/10/09 03:03:46;;;;;;;;;;;;;;;21.83;48.92;102190.63;5035256;28;19917;-86
2023/10/09 03:06:12;;;;;;;;;;;;;;;21.74;49.02;102185.03;5051625;28;19916;-86
2023/10/09 03:08:38;;;;;;;;;;;;;;;21.79;49.11;102180.72;5035873;28;20011;-87
2023/10/09 03:11:05;;;;;;;;;;;;;;;21.84;48.89;102184.41;5021917;28;19913;-85
2023/10/09 03:13:33;;;;;;;;;;;;;;;21.75;48.70;102184.16;5047555;28;20215;-86
2023/10/09 03:16:01;;;;;;;;;;;;;;;21.87;48.93;102187.19;5006306;28;20376;-86
2023/10/09 03:18:28;;;;;;;;;;;;;;;21.70;48.78;102189.34;5034474;28;19936;-85
2023/10/09 03:20:53;;;;;;;;;;;;;;;21.77;49.16;102187.75;5045788;28;19921;-86
2023/10/09 03:23:19;;;;;;;;;;;;;;;21.83;48.27;102193.28;5043599;28;19963;-86
2023/10/09 03:25:45;;;;;;;;;;;;;;;21.78;49.01;102186.94;5039754;28;19917;-86
2023/10/09 03:28:11;;;;;;;;;;;;;;;21.87;48.51;102196.94;5037236;28;20441;-85
2023/10/09 03:30:40;;;;;;;;;;;;;;;21.87;48.38;102215.56;5035583;28;20015;-86
2023/10/09 03:33:06;;;;;;;;;;;;;;;21.71;48.74;102208.84;5036649;28;19993;-86
2023/10/09 03:35:34;;;;;;;;;;;;;;;21.69;48.82;102207.91;5034531;28;19932;-86
2023/10/09 03:38:06;;;;;;;;;;;;;;;21.64;49.16;102213.06;5020709;28;20436;-85
2023/10/09 03:40:32;;;;;;;;;;;;;;;21.69;48.97;102215.88;5032357;28;19917;-86
2023/10/09 03:42:58;;;;;;;;;;;;;;;21.70;48.53;102212.38;5050760;28;19985;-87
2023/10/09 03:45:27;;;;;;;;;;;;;;;21.61;48.97;102225.34;5069010;28;19925;-86
2023/10/09 03:48:02;;;;;;;;;;;;;;;21.62;48.64;102216.53;5019283;28;19960;-86
2023/10/09 03:50:35;;;;;;;;;;;;;;;21.44;48.09;102223.06;5027313;28;20013;-86
2023/10/09 03:53:02;;;;;;;;;;;;;;;21.33;47.66;102213.78;5036430;28;19916;-87
2023/10/09 03:55:28;;;;;;;;;;;;;;;21.43;48.08;102205.31;5050514;28;20378;-87
2023/10/09 03:57:54;;;;;;;;;;;;;;;21.48;48.14;102216.09;5036862;28;19921;-86
2023/10/09 04:00:28;;;;;;;;;;;;;;;21.52;47.87;102210.00;5034357;28;20015;-89
2023/10/09 04:02:55;;;;;;;;;;;;;;;21.54;48.16;102213.63;5029870;28;19917;-89
2023/10/09 04:05:21;;;;;;;;;;;;;;;21.52;48.65;102224.19;5033121;28;19920;-89
2023/10/09 04:07:54;;;;;;;;;;;;;;;21.39;48.69;102235.25;5018833;28;19917;-89
2023/10/09 04:10:42;;;;;;;;;;;;;;;21.45;48.02;102234.59;5057507;28;20382;-88
2023/10/09 04:13:17;;;;;;;;;;;;;;;21.33;48.01;102227.09;5040034;28;19920;-89
2023/10/09 04:16:11;;;;;;;;;;;;;;;21.41;48.57;102244.19;5017332;28;19928;-87
2023/10/09 04:18:56;;;;;;;;;;;;;;;21.47;48.49;102252.41;5056317;28;19921;-87
2023/10/09 04:22:09;;;;;;;;;;;;;;;21.46;48.30;102252.34;5022085;28;19925;-87
2023/10/09 04:24:58;;;;;;;;;;;;;;;21.22;49.04;102255.94;5029214;28;19923;-86
2023/10/09 04:30:29;;;;;;;;;;;;;;;21.41;48.56;102260.13;5050887;28;19947;-88
2023/10/09 04:33:11;;;;;;;;;;;;;;;21.26;48.98;102260.53;5028516;28;19949;-87
2023/10/09 04:35:38;;;;;;;;;;;;;;;21.34;48.39;102277.63;5048034;28;19925;-88
2023/10/09 04:38:05;;;;;;;;;;;;;;;21.37;49.04;102263.53;5031978;28;19917;-89
2023/10/09 04:40:58;;;;;;;;;;;;;;;21.34;49.15;102274.97;5022437;28;19924;-90
2023/10/09 04:43:26;;;;;;;;;;;;;;;21.35;48.67;102273.22;5014252;28;19925;-88
2023/10/09 04:46:26;;;;;;;;;;;;;;;21.34;49.07;102276.75;5013034;28;19921;-87
2023/10/09 04:48:55;;;;;;;;;;;;;;;21.32;49.33;102279.34;5012189;28;19976;-88
2023/10/09 04:51:21;;;;;;;;;;;;;;;21.38;49.56;102297.25;5027802;28;19917;-88
2023/10/09 04:54:14;;;;;;;;;;;;;;;21.35;48.90;102284.75;5027771;28;19917;-87
2023/10/09 04:56:51;;;;;;;;;;;;;;;21.12;49.06;102306.97;5037960;28;19924;-88
2023/10/09 04:59:26;;;;;;;;;;;;;;;21.18;48.92;102295.66;5033765;28;20348;-88
2023/10/09 05:01:58;;;;;;;;;;;;;;;21.18;49.37;102293.91;5005543;28;19932;-91
2023/10/09 05:08:18;;;;;;;;;;;;;;;21.19;49.03;102292.13;4963164;28;19925;-89
2023/10/09 05:16:28;;;;;;;;;;;;;;;21.21;48.97;102296.69;5026417;28;19924;-88
2023/10/09 05:18:56;;;;;;;;;;;;;;;21.26;49.36;102307.47;4994187;28;19971;-86
2023/10/09 05:29:49;;;;;;;;;;;;;;;21.23;49.40;102334.84;5032198;28;19943;-89
2023/10/09 05:32:27;;;;;;;;;;;;;;;21.25;49.45;102329.53;5015658;28;19976;-88
2023/10/09 05:35:15;;;;;;;;;;;;;;;21.24;49.17;102344.59;5002489;28;20272;-87
2023/10/09 05:37:43;;;;;;;;;;;;;;;21.22;49.50;102350.72;5014318;28;19932;-85
2023/10/09 05:40:31;;;;;;;;;;;;;;;21.22;49.59;102348.06;5021121;28;19995;-87
2023/10/09 05:42:59;;;;;;;;;;;;;;;21.23;49.80;102350.78;5034821;28;19921;-88
2023/10/09 06:04:18;;;;;;;;;;;;;;;21.03;49.37;102373.94;5049901;28;19913;-87
2023/10/09 06:06:44;;;;;;;;;;;;;;;21.01;49.95;102382.72;5046602;28;19920;-87
2023/10/09 06:11:40;;;;;;;;;;;;;;;20.97;49.79;102405.59;5029388;28;19913;-87
2023/10/09 06:19:58;;;;;;;;;;;;;;;20.83;49.81;102420.13;5013842;28;19921;-88
2023/10/09 06:25:08;;;;;;;;;;;;;;;21.00;49.63;102442.00;5032417;28;19925;-87
2023/10/09 06:30:23;;;;;;;;;;;;;;;20.86;49.85;102441.47;5036284;28;19967;-88
2023/10/09 06:35:36;;;;;;;;;;;;;;;20.71;50.00;102458.59;5032879;28;19923;-86
2023/10/09 06:41:45;;;;;;;;;;;;;;;20.88;49.67;102474.31;5036202;28;19924;-86
2023/10/09 06:44:52;;;;;;;;;;;;;;;20.75;49.23;102483.53;5064745;28;20028;-86
2023/10/09 06:47:24;;;;;;;;;;;;;;;20.81;50.21;102482.88;5041048;28;19917;-86
2023/10/09 06:55:19;;;;;;;;;;;;;;;20.82;49.93;102485.59;5027543;28;19920;-85
2023/10/09 06:57:48;;;;;;;;;;;;;;;20.75;50.25;102491.50;5030937;28;19925;-89
2023/10/09 07:03:10;;;;;;;;;;;;;;;20.78;50.70;102474.78;5041307;28;19924;-86
2023/10/09 07:05:49;;;;;;;;;;;;;;;20.63;50.57;102467.13;5041122;28;20350;-86
2023/10/09 07:08:31;;;;;;;;;;;;;;;20.60;50.67;102478.53;5039515;28;19929;-85
2023/10/09 07:11:20;;;;;;;;;;;;;;;20.66;50.30;102484.09;5047622;28;19931;-86
2023/10/09 07:13:52;;;;;;;;;;;;;;;20.80;49.68;102479.31;5047844;28;19917;-87
2023/10/09 07:16:28;;;;;;;;;;;;;;;20.68;50.16;102476.16;5039163;28;20400;-86
2023/10/09 07:18:54;;;;;;;;;;;;;;;20.83;49.84;102486.50;5060535;28;19917;-87
2023/10/09 07:21:27;;;;;;;;;;;;;;;20.54;49.91;102486.19;5021715;28;19924;-86
2023/10/09 07:23:58;;;;;;;;;;;;;;;20.58;50.73;102490.84;5036904;28;20412;-85
2023/10/09 07:26:25;;;;;;;;;;;;;;;20.64;50.27;102488.44;5037410;28;20352;-86
2023/10/09 07:29:15;;;;;;;;;;;;;;;20.65;50.30;102490.22;5039201;28;20011;-89
2023/10/09 07:31:45;;;;;;;;;;;;;;;20.69;50.22;102494.81;5035689;28;20433;-87
2023/10/09 07:37:34;;;;;;;;;;;;;;;20.56;50.85;102491.59;5009676;28;19972;-86
2023/10/09 07:40:06;;;;;;;;;;;;;;;20.51;50.68;102492.31;5042539;28;20040;-86
2023/10/09 07:46:29;;;;;;;;;;;;;;;20.42;50.38;102477.72;5038405;28;19952;-86
2023/10/09 07:48:05;;;;;;;;;;;;;;;20.26;50.34;102479.78;5060891;28;20032;-88
2023/10/09 07:50:49;;;;;;;;;;;;;;;20.28;51.31;102483.38;5051846;28;19925;-85
2023/10/09 07:53:17;;;;;;;;;;;;;;;20.26;51.23;102478.88;5054112;28;19948;-84
2023/10/09 07:55:53;;;;;;;;;;;;;;;20.29;51.34;102476.31;5031952;28;19987;-83
2023/10/09 07:58:28;;;;;;;;;;;;;;;20.44;50.89;102476.94;5051079;28;19917;-85
2023/10/09 08:01:16;;;;;;;;;;;;;;;20.29;50.81;102455.09;5030161;28;19928;-84
2023/10/09 08:03:45;;;;;;;;;;;;;;;20.33;51.16;102475.63;5035977;28;20040;-88
2023/10/09 08:12:13;;;;;;;;;;;;;;;20.33;41.69;102475.63;5022709;28;20268;-89
2023/10/09 08:15:12;;;;;;;;;;;;;;;20.19;39.88;102475.03;5052935;28;19939;-87
2023/10/09 08:17:38;;;;;;;;;;;;;;;20.15;40.17;102470.47;5050077;28;20299;-86
2023/10/09 08:20:13;;;;;;;;;;;;;;;20.01;39.85;102468.97;5053221;28;20019;-86
2023/10/09 08:22:52;;;;;;;;;;;;;;;20.08;40.55;102465.72;5042630;28;19925;-90
2023/10/09 08:25:27;;;;;;;;;;;;;;;20.25;43.68;102461.13;5029199;28;19917;-87
2023/10/09 08:27:57;;;;;;;;;;;;;;;20.29;44.77;102461.31;5028636;28;20358;-89
2023/10/09 08:33:05;;;;;;;;;;;;;;;20.37;46.13;102460.72;5030228;28;20130;-89
2023/10/09 08:35:33;;;;;;;;;;;;;;;20.44;46.22;102455.72;5044030;28;19920;-88
2023/10/09 08:38:10;;;;;;;;;;;;;;;20.37;46.70;102453.66;5034278;28;19913;-87
2023/10/09 08:40:39;;;;;;;;;;;;;;;20.40;47.43;102452.88;5027532;28;19921;-88
2023/10/09 08:43:25;;;;;;;;;;;;;;;20.46;46.97;102447.81;5025936;28;19920;-89
2023/10/09 08:46:00;;;;;;;;;;;;;;;20.44;47.90;102442.44;5054820;28;19916;-88
2023/10/09 08:48:27;;;;;;;;;;;;;;;20.42;47.51;102440.59;5036307;28;20300;-88
2023/10/09 08:50:54;;;;;;;;;;;;;;;20.39;48.13;102436.06;5035205;28;19913;-88
2023/10/09 08:53:21;;;;;;;;;;;;;;;20.33;47.35;102422.53;5053303;28;19916;-88
2023/10/09 08:56:07;;;;;;;;;;;;;;;20.39;48.28;102440.47;5032395;28;20378;-87
2023/10/09 08:58:37;;;;;;;;;;;;;;;20.40;48.54;102444.91;5021202;28;19924;-88
2023/10/09 09:01:02;;;;;;;;;;;;;;;20.47;47.96;102441.69;5037016;28;19920;-88
2023/10/09 09:03:38;;;;;;;;;;;;;;;20.48;48.46;102443.47;5030911;28;19917;-89
2023/10/09 09:06:04;;;;;;;;;;;;;;;20.49;48.60;102440.91;5045060;28;19912;-89
2023/10/09 09:08:36;;;;;;;;;;;;;;;20.48;48.38;102447.03;5049414;28;20007;-88
2023/10/09 09:11:11;;;;;;;;;;;;;;;20.57;48.30;102446.50;5055783;28;20407;-89
2023/10/09 09:13:37;;;;;;;;;;;;;;;20.60;48.07;102446.66;5041839;28;19959;-88
2023/10/09 09:16:03;;;;;;;;;;;;;;;20.56;49.24;102443.81;5050100;28;19948;-87
2023/10/09 09:18:36;;;;;;;;;;;;;;;20.54;48.36;102438.44;5037907;28;19917;-88
2023/10/09 09:21:05;;;;;;;;;;;;;;;20.50;49.45;102445.34;5023141;28;20386;-86
2023/10/09 09:23:31;;;;;;;;;;;;;;;20.49;48.99;102446.22;5032053;28;19921;-87
2023/10/09 09:26:01;;;;;;;;;;;;;;;20.50;48.37;102441.81;5031063;28;19923;-87
2023/10/09 09:28:32;;;;;;;;;;;;;;;20.51;48.99;102441.88;5067427;28;20414;-88
2023/10/09 09:31:07;;;;;;;;;;;;;;;20.45;49.66;102438.97;5029421;28;20394;-88
2023/10/09 09:33:39;;;;;;;;;;;;;;;20.54;49.06;102433.13;5047228;28;20011;-87
2023/10/09 09:36:06;;;;;;;;;;;;;;;20.59;49.09;102428.91;5037964;28;20379;-86
2023/10/09 09:38:47;;;;;;;;;;;;;;;20.59;49.38;102423.59;5051552;28;19920;-86
2023/10/09 09:41:23;;;;;;;;;;;;;;;20.58;49.31;102421.81;5020049;28;19917;-86
2023/10/09 09:44:01;;;;;;;;;;;;;;;20.61;49.16;102428.97;5029112;28;19975;-87
2023/10/09 09:46:33;;;;;;;;;;;;;;;20.60;48.86;102427.19;5034537;28;19913;-86
2023/10/09 09:49:01;;;;;;;;;;;;;;;20.59;48.77;102428.03;5043247;28;19921;-87
2023/10/09 09:51:30;;;;;;;;;;;;;;;20.56;49.20;102414.59;5057476;28;19913;-87
2023/10/09 09:53:56;;;;;;;;;;;;;;;20.58;49.03;102415.59;5024932;28;19921;-87
2023/10/09 09:56:24;;;;;;;;;;;;;;;20.53;50.18;102411.00;5041601;28;19928;-87
2023/10/09 09:58:53;;;;;;;;;;;;;;;20.58;49.46;102421.81;5049624;28;19913;-87
2023/10/09 10:01:24;;;;;;;;;;;;;;;20.52;50.44;102405.59;5034581;28;20016;-87
2023/10/09 10:04:13;;;;;;;;;;;;;;;20.52;50.71;102410.91;5035149;28;20071;-88
2023/10/09 10:06:41;;;;;;;;;;;;;;;20.54;50.82;102391.53;5023654;28;20318;-87
2023/10/09 10:09:07;;;;;;;;;;;;;;;20.57;50.30;102406.69;5024944;28;20295;-85
2023/10/09 10:11:48;;;;;;;;;;;;;;;20.54;50.37;102398.63;5029271;28;20050;-87
2023/10/09 10:14:21;;;;;;;;;;;;;;;20.55;50.60;102379.16;5012033;28;20487;-87
2023/10/09 10:17:00;;;;;;;;;;;;;;;20.53;51.05;102368.53;5026626;28;19924;-87
2023/10/09 10:19:29;;;;;;;;;;;;;;;20.54;47.07;102356.16;5027448;28;19917;-86
2023/10/09 10:22:01;;;;;;;;;;;;;;;20.45;42.71;102359.34;5028354;28;19927;-82
2023/10/09 10:24:30;;;;;;;;;;;;;;;20.30;41.12;102349.03;5042601;28;20533;-84
2023/10/09 10:27:18;;;;;;;;;;;;;;;20.47;43.24;102359.41;5045409;28;20683;-87
2023/10/09 10:29:46;;;;;;;;;;;;;;;20.50;44.72;102351.56;5041467;28;19939;-86
2023/10/09 10:32:12;;;;;;;;;;;;;;;20.51;45.84;102338.34;5024411;28;19949;-87
2023/10/09 10:34:54;;;;;;;;;;;;;;;20.48;47.33;102337.31;5047555;28;19917;-87
2023/10/09 10:37:20;;;;;;;;;;;;;;;20.42;48.03;102337.09;5030255;28;19912;-86
2023/10/09 10:39:50;;;;;;;;;;;;;;;20.41;48.70;102341.50;5036800;28;19924;-87
2023/10/09 10:42:33;;;;;;;;;;;;;;;20.42;49.68;102339.75;5036004;28;19928;-87
2023/10/09 10:45:02;;;;;;;;;;;;;;;20.43;48.37;102337.16;5030099;28;21165;-87
2023/10/09 10:47:34;;;;;;;;;;;;;;;20.45;49.56;102348.75;5022763;28;20003;-87
2023/10/09 10:50:11;;;;;;;;;;;;;;;20.46;48.84;102337.25;5031257;28;19964;-87
2023/10/09 10:52:42;;;;;;;;;;;;;;;20.46;50.06;102337.25;5042107;28;19921;-86
2023/10/09 10:55:17;;;;;;;;;;;;;;;20.39;50.21;102337.88;5037618;28;19913;-87
2023/10/09 10:58:02;;;;;;;;;;;;;;;20.44;49.65;102323.03;5037489;28;19955;-89
2023/10/09 11:06:35;;;;;;;;;;;;;;;20.44;50.86;102325.69;4976967;28;20451;-89
2023/10/09 11:09:09;;;;;;;;;;;;;;;20.46;50.61;102323.09;5012440;28;19914;-89
2023/10/09 11:11:41;;;;;;;;;;;;;;;20.50;50.55;102322.38;5007894;28;19913;-89
2023/10/09 11:14:14;;;;;;;;;;;;;;;20.48;50.96;102324.97;5044068;28;19920;-89
2023/10/09 11:16:42;;;;;;;;;;;;;;;20.44;50.65;102330.09;5054411;28;20400;-89
2023/10/09 11:19:28;;;;;;;;;;;;;;;20.47;50.75;102319.63;5054766;28;19916;-90
2023/10/09 11:24:35;;;;;;;;;;;;;;;20.46;50.96;102304.53;5043222;28;19921;-89
2023/10/09 11:27:05;;;;;;;;;;;;;;;20.47;50.71;102299.28;5047010;28;19913;-89
2023/10/09 11:32:17;;;;;;;;;;;;;;;20.48;50.83;102292.22;5054255;28;19917;-88
2023/10/09 11:34:51;;;;;;;;;;;;;;;20.53;50.63;102290.63;5037738;28;20389;-90
2023/10/09 11:39:57;;;;;;;;;;;;;;;20.52;50.63;102288.84;5046890;28;19924;-89
2023/10/09 11:42:47;;;;;;;;;;;;;;;20.60;50.38;102286.50;5034129;28;19925;-89
2023/10/09 11:45:29;;;;;;;;;;;;;;;20.60;50.40;102287.41;5052952;28;19916;-89
2023/10/09 11:47:58;;;;;;;;;;;;;;;20.61;50.22;102275.91;5038794;28;19913;-89
2023/10/09 11:50:42;;;;;;;;;;;;;;;20.65;50.24;102268.97;5023318;28;19971;-90
2023/10/09 11:53:09;;;;;;;;;;;;;;;20.99;48.44;102268.44;5022481;28;19924;-89
2023/10/09 11:55:37;;;;;;;;;;;;;;;20.81;47.82;102252.78;5029645;28;20000;-90
2023/10/09 11:58:04;;;;;;;;;;;;;;;20.71;48.42;102251.53;5030089;28;20004;-90
2023/10/09 12:00:44;;;;;;;;;;;;;;;20.77;48.64;102247.31;5040530;28;19968;-89
2023/10/09 12:03:10;;;;;;;;;;;;;;;20.73;49.08;102241.88;5040426;28;19920;-90
2023/10/09 12:05:37;;;;;;;;;;;;;;;20.68;49.70;102242.53;5018238;28;20357;-89
2023/10/09 12:08:08;;;;;;;;;;;;;;;20.69;49.73;102241.69;5035907;28;20389;-88
2023/10/09 12:10:38;;;;;;;;;;;;;;;20.63;50.20;102247.69;5053527;28;20278;-88
2023/10/09 12:13:04;;;;;;;;;;;;;;;20.61;50.17;102236.09;5020020;28;20003;-90
2023/10/09 12:15:37;;;;;;;;;;;;;;;20.66;50.48;102229.22;5024089;28;19968;-89
2023/10/09 12:18:18;;;;;;;;;;;;;;;20.70;50.23;102241.78;5066257;28;19925;-89
2023/10/09 12:21:02;;;;;;;;;;;;;;;20.66;50.29;102245.16;5058025;28;19966;-88
2023/10/09 12:23:27;;;;;;;;;;;;;;;20.67;50.48;102246.94;5038198;28;20322;-87
2023/10/09 12:25:56;;;;;;;;;;;;;;;20.67;50.54;102230.13;5031393;28;19913;-87
2023/10/09 12:28:22;;;;;;;;;;;;;;;20.64;50.70;102225.63;5033550;28;19920;-88
2023/10/09 12:30:52;;;;;;;;;;;;;;;20.67;50.76;102222.16;5037999;28;19913;-89
2023/10/09 12:33:19;;;;;;;;;;;;;;;20.69;50.68;102215.16;5046207;28;20008;-90
2023/10/09 12:35:47;;;;;;;;;;;;;;;20.66;50.89;102205.34;5029937;28;20023;-88
2023/10/09 12:38:18;;;;;;;;;;;;;;;20.71;50.41;102192.22;5019788;28;20381;-89
2023/10/09 12:40:50;;;;;;;;;;;;;;;20.68;50.63;102182.41;5031612;28;20011;-89
2023/10/09 12:43:17;;;;;;;;;;;;;;;20.68;50.76;102171.78;5023409;28;19922;-90
2023/10/09 12:45:42;;;;;;;;;;;;;;;20.69;50.97;102170.03;5046535;28;19962;-89
2023/10/09 12:48:09;;;;;;;;;;;;;;;20.71;51.04;102165.69;5019980;28;19913;-90
2023/10/09 12:50:47;;;;;;;;;;;;;;;20.77;50.69;102175.63;5042387;28;19913;-89
2023/10/09 12:53:17;;;;;;;;;;;;;;;20.74;50.88;102168.41;5038366;28;19917;-89
2023/10/09 12:55:43;;;;;;;;;;;;;;;20.71;50.95;102166.56;5051957;28;20309;-89
2023/10/09 12:58:09;;;;;;;;;;;;;;;20.73;50.96;102172.84;5043867;28;19913;-88
2023/10/09 13:00:37;;;;;;;;;;;;;;;20.73;51.00;102164.88;5052929;28;19928;-88
2023/10/09 13:03:13;;;;;;;;;;;;;;;20.70;51.00;102161.19;5034499;28;20401;-88
2023/10/09 13:05:46;;;;;;;;;;;;;;;20.66;51.16;102154.91;5016823;28;19917;-90
2023/10/09 13:08:11;;;;;;;;;;;;;;;20.66;51.31;102154.00;5031555;28;19983;-87
2023/10/09 13:10:38;;;;;;;;;;;;;;;20.64;51.43;102159.25;5018878;28;20374;-88
2023/10/09 13:13:06;;;;;;;;;;;;;;;20.66;51.41;102149.59;5052230;28;19916;-88
2023/10/09 13:15:42;;;;;;;;;;;;;;;20.64;51.52;102140.66;5020844;28;19913;-88
2023/10/09 13:18:08;;;;;;;;;;;;;;;20.60;51.63;102122.84;5036367;28;19967;-87
2023/10/09 13:20:36;;;;;;;;;;;;;;;20.64;51.47;102126.50;5029690;28;19917;-88
2023/10/09 13:23:01;;;;;;;;;;;;;;;20.61;51.48;102124.63;5026261;28;20012;-87
2023/10/09 13:25:38;;;;;;;;;;;;;;;20.60;51.57;102130.78;5037388;28;19912;-88
2023/10/09 13:28:04;;;;;;;;;;;;;;;20.67;50.86;102127.50;5035632;28;19917;-90
2023/10/09 13:30:29;;;;;;;;;;;;;;;20.64;50.53;102126.50;5045865;28;19913;-88
2023/10/09 13:32:55;;;;;;;;;;;;;;;20.61;50.53;102129.03;5009053;28;19924;-88
2023/10/09 13:35:27;;;;;;;;;;;;;;;20.59;50.73;102133.38;5038662;28;19917;-89
2023/10/09 13:37:55;;;;;;;;;;;;;;;20.63;50.59;102127.34;5046013;28;19920;-88
2023/10/09 13:40:28;;;;;;;;;;;;;;;20.59;50.91;102118.34;5029229;28;19921;-87
2023/10/09 13:42:58;;;;;;;;;;;;;;;20.62;50.79;102114.94;5030141;28;19947;-87
2023/10/09 13:45:26;;;;;;;;;;;;;;;20.68;50.71;102109.81;5038849;28;19917;-88
2023/10/09 13:47:56;;;;;;;;;;;;;;;20.63;50.91;102112.31;5044365;28;20377;-89
2023/10/09 13:50:28;;;;;;;;;;;;;;;20.66;50.89;102107.13;5024799;28;19939;-87
2023/10/09 13:52:54;;;;;;;;;;;;;;;20.62;51.10;102099.00;5034370;28;19963;-89
2023/10/09 13:55:20;;;;;;;;;;;;;;;20.68;50.94;102093.88;5025543;28;19917;-88
2023/10/09 13:57:47;;;;;;;;;;;;;;;20.68;50.93;102101.84;5013316;28;19921;-89
2023/10/09 14:00:17;;;;;;;;;;;;;;;20.63;51.07;102090.19;5031006;28;19921;-89
2023/10/09 14:02:43;;;;;;;;;;;;;;;20.60;51.31;102093.63;5014671;28;20390;-89
2023/10/09 14:05:09;;;;;;;;;;;;;;;20.56;51.53;102094.34;5033725;28;20035;-89
2023/10/09 14:07:37;;;;;;;;;;;;;;;20.57;51.51;102084.63;5051507;28;19959;-89
2023/10/09 14:10:17;;;;;;;;;;;;;;;20.57;51.47;102092.59;5051692;28;19947;-88
2023/10/09 14:12:43;;;;;;;;;;;;;;;20.53;51.65;102075.66;5052397;28;19916;-89
2023/10/09 14:15:16;;;;;;;;;;;;;;;20.57;51.53;102069.59;5034058;28;19916;-91
2023/10/09 14:17:42;;;;;;;;;;;;;;;20.57;51.61;102063.38;5017746;28;19917;-84
2023/10/09 14:20:30;;;;;;;;;;;;;;;20.64;51.37;102060.16;5050777;28;19912;-85
2023/10/09 14:22:55;;;;;;;;;;;;;;;20.60;51.43;102051.16;5050952;28;19968;-85
2023/10/09 14:25:21;;;;;;;;;;;;;;;20.57;51.66;102050.13;5032774;28;20095;-84
2023/10/09 14:27:48;;;;;;;;;;;;;;;20.56;51.67;102048.34;5021070;28;19939;-84
2023/10/09 14:30:22;;;;;;;;;;;;;;;20.52;51.76;102042.00;5034140;28;19952;-84
2023/10/09 14:32:51;;;;;;;;;;;;;;;20.51;51.89;102042.84;5019671;28;20353;-84
2023/10/09 14:35:21;;;;;;;;;;;;;;;20.51;51.96;102049.09;5029734;28;20350;-84
2023/10/09 14:37:46;;;;;;;;;;;;;;;20.49;52.10;102053.44;5045009;28;19919;-85
2023/10/09 14:40:20;;;;;;;;;;;;;;;20.49;52.00;102039.28;5045739;28;20004;-85
2023/10/09 14:42:46;;;;;;;;;;;;;;;20.49;52.13;102047.22;5039961;28;19932;-85
2023/10/09 14:45:16;;;;;;;;;;;;;;;20.48;52.35;102042.75;5015899;28;19916;-85
2023/10/09 14:47:41;;;;;;;;;;;;;;;20.49;52.32;102042.81;5033319;28;19935;-84
2023/10/09 14:50:09;;;;;;;;;;;;;;;20.47;52.07;102033.91;5016686;28;20378;-84
2023/10/09 14:52:38;;;;;;;;;;;;;;;20.50;52.16;102030.44;5021211;28;19913;-84
2023/10/09 14:55:05;;;;;;;;;;;;;;;20.51;52.16;102027.84;5031760;28;19975;-84
2023/10/09 14:57:34;;;;;;;;;;;;;;;20.53;51.95;102025.22;5032239;28;20382;-84
2023/10/09 15:00:13;;;;;;;;;;;;;;;20.49;52.19;102016.28;5022162;28;19948;-85
2023/10/09 15:02:40;;;;;;;;;;;;;;;20.45;52.75;102019.69;5024981;28;19930;-87
2023/10/09 15:05:10;;;;;;;;;;;;;;;20.44;52.61;102025.81;5046982;28;19925;-85
2023/10/09 15:07:38;;;;;;;;;;;;;;;20.43;52.65;102031.09;5052913;28;19920;-85
2023/10/09 15:10:04;;;;;;;;;;;;;;;20.45;52.34;102035.59;5031671;28;19955;-81
2023/10/09 15:12:30;;;;;;;;;;;;;;;20.47;52.43;102033.00;5005251;28;19917;-84
2023/10/09 15:14:57;;;;;;;;;;;;;;;20.47;52.49;102027.69;5028427;28;19931;-81
2023/10/09 15:17:24;;;;;;;;;;;;;;;20.46;52.63;102028.53;5030372;28;19927;-86
2023/10/09 15:19:55;;;;;;;;;;;;;;;20.42;52.85;102023.97;5026424;28;20552;-83